Time;durP1;ratioP1;P1;durP2;ratioP2;P2;SDS_P1;SDS_P2;PMS_P1;PMS_P2;Temp;Humidity;BMP_temperature;BMP_pressure;BME280_temperature;BME280_humidity;BME280_pressure;Samples;Min_cycle;Max_cycle;Signal;HPM_P1;HPM_P2
2022/12/21 00:00:52;;;;;;;89.38;33.00;;;9.10;99.90;;;;;;5049192;28;20106;-49
2022/12/21 00:03:19;;;;;;;102.15;33.28;;;9.00;99.90;;;;;;5050395;28;20131;-51
2022/12/21 00:05:45;;;;;;;116.93;34.08;;;9.00;99.90;;;;;;5054080;28;20045;-46
2022/12/21 00:08:12;;;;;;;96.00;33.38;;;9.10;99.90;;;;;;5053777;28;20087;-49
2022/12/21 00:10:39;;;;;;;82.18;30.30;;;9.00;99.90;;;;;;5051217;28;20558;-47
2022/12/21 00:13:06;;;;;;;89.85;31.08;;;9.00;99.90;;;;;;5049713;28;20122;-42
2022/12/21 00:15:33;;;;;;;77.63;28.75;;;9.00;99.90;;;;;;5049999;28;20131;-50
2022/12/21 00:18:01;;;;;;;99.22;29.50;;;9.00;99.90;;;;;;5051983;28;20099;-48
2022/12/21 00:20:28;;;;;;;80.38;29.75;;;8.90;99.90;;;;;;5052646;28;20493;-48
2022/12/21 00:22:55;;;;;;;109.05;32.95;;;8.90;99.90;;;;;;5050831;28;20052;-47
2022/12/21 00:25:21;;;;;;;87.85;29.90;;;8.90;99.90;;;;;;5052641;28;20089;-49
2022/12/21 00:27:48;;;;;;;77.88;28.85;;;8.90;99.90;;;;;;5053599;28;20513;-44
2022/12/21 00:30:15;;;;;;;89.38;31.85;;;8.90;99.90;;;;;;5052774;28;20362;-48
2022/12/21 00:32:42;;;;;;;81.95;30.60;;;8.90;99.90;;;;;;5052705;28;20083;-48
2022/12/21 00:35:11;;;;;;;82.25;29.50;;;8.90;99.90;;;;;;5052774;28;20092;-48
2022/12/21 00:37:38;;;;;;;132.82;33.22;;;8.90;99.90;;;;;;5051520;28;20060;-46
2022/12/21 00:40:06;;;;;;;92.45;31.75;;;8.80;99.90;;;;;;5051299;28;20489;-48
2022/12/21 00:42:33;;;;;;;120.15;34.13;;;8.80;99.90;;;;;;5052152;28;20574;-51
2022/12/21 00:45:00;;;;;;;116.72;32.95;;;8.90;99.90;;;;;;5049522;28;20106;-48
2022/12/21 00:47:26;;;;;;;119.20;33.58;;;8.80;99.90;;;;;;5053588;28;20088;-49
2022/12/21 00:49:53;;;;;;;110.45;32.75;;;8.80;99.90;;;;;;5053485;28;20130;-50
2022/12/21 00:52:21;;;;;;;108.25;30.98;;;8.80;99.90;;;;;;5052070;28;20099;-48
2022/12/21 00:54:48;;;;;;;100.22;31.52;;;8.80;99.90;;;;;;5051751;28;20412;-49
2022/12/21 00:57:15;;;;;;;114.30;28.30;;;8.80;99.90;;;;;;5050759;28;20110;-47
2022/12/21 00:59:42;;;;;;;77.55;27.65;;;8.70;99.90;;;;;;5033614;28;20085;-46
2022/12/21 01:02:09;;;;;;;124.63;31.70;;;8.70;99.90;;;;;;5033179;28;20053;-49
2022/12/21 01:04:35;;;;;;;91.18;27.90;;;8.70;99.90;;;;;;5042630;28;20052;-48
2022/12/21 01:07:02;;;;;;;124.82;29.83;;;8.60;99.90;;;;;;5051706;28;20057;-46
2022/12/21 01:09:30;;;;;;;108.63;28.77;;;8.60;99.90;;;;;;5051345;28;20099;-49
2022/12/21 01:11:57;;;;;;;114.65;28.08;;;8.60;99.90;;;;;;5047547;28;20156;-50
2022/12/21 01:14:24;;;;;;;142.80;27.98;;;8.60;99.90;;;;;;5051060;28;20087;-47
2022/12/21 01:16:51;;;;;;;140.23;27.50;;;8.50;99.90;;;;;;5032176;28;20096;-47
2022/12/21 01:19:17;;;;;;;185.88;30.45;;;8.50;99.90;;;;;;5031001;28;20140;-47
2022/12/21 01:21:44;;;;;;;226.48;30.02;;;8.50;99.90;;;;;;5034576;28;20056;-51
2022/12/21 01:24:12;;;;;;;151.52;27.35;;;8.50;99.90;;;;;;5049666;28;20077;-45
2022/12/21 01:26:40;;;;;;;195.80;28.45;;;8.50;99.90;;;;;;5049797;28;20123;-48
2022/12/21 01:29:07;;;;;;;220.82;26.73;;;8.40;99.90;;;;;;5050671;28;20084;-47
2022/12/21 01:31:34;;;;;;;221.50;27.20;;;8.50;99.90;;;;;;5051855;28;20409;-51
2022/12/21 01:34:01;;;;;;;71.20;22.95;;;8.50;99.90;;;;;;5050672;28;20049;-49
2022/12/21 01:36:28;;;;;;;183.18;25.00;;;8.40;99.90;;;;;;5050906;28;20057;-50
2022/12/21 01:38:55;;;;;;;127.97;23.25;;;8.40;99.90;;;;;;5050579;28;20135;-48
2022/12/21 01:41:23;;;;;;;157.80;24.88;;;8.40;99.90;;;;;;5050768;28;20135;-49
2022/12/21 01:43:52;;;;;;;110.03;24.52;;;8.40;99.90;;;;;;5051689;28;20052;-50
2022/12/21 01:46:22;;;;;;;78.95;23.45;;;8.40;99.90;;;;;;5048734;28;20053;-45
2022/12/21 01:48:53;;;;;;;197.45;26.52;;;8.40;99.90;;;;;;5049674;28;20080;-47
2022/12/21 01:51:20;;;;;;;196.32;24.60;;;8.40;99.90;;;;;;5050648;28;20049;-47
2022/12/21 01:53:49;;;;;;;160.68;24.85;;;8.40;99.90;;;;;;5050205;28;20555;-47
2022/12/21 01:56:16;;;;;;;97.90;22.50;;;8.30;99.90;;;;;;5048814;28;20092;-48
2022/12/21 01:58:43;;;;;;;133.65;24.17;;;8.30;99.90;;;;;;5051508;28;20056;-49
2022/12/21 02:01:11;;;;;;;197.60;25.85;;;8.30;99.90;;;;;;5050547;28;20084;-51
2022/12/21 02:03:40;;;;;;;83.80;21.75;;;8.30;99.90;;;;;;5052866;28;20099;-52
2022/12/21 02:06:08;;;;;;;67.32;22.73;;;8.30;99.90;;;;;;5053867;28;20084;-50
2022/12/21 02:08:35;;;;;;;114.53;23.33;;;8.30;99.90;;;;;;5017350;28;1081729;-50
2022/12/21 02:11:02;;;;;;;186.30;24.38;;;8.30;99.90;;;;;;5054453;28;20049;-51
2022/12/21 02:13:29;;;;;;;143.65;22.80;;;8.30;99.90;;;;;;5055386;28;20095;-51
2022/12/21 02:16:02;;;;;;;133.90;23.25;;;8.30;99.90;;;;;;5054021;28;20080;-48
2022/12/21 02:18:44;;;;;;;166.35;24.02;;;8.30;99.90;;;;;;5055009;28;20085;-48
2022/12/21 02:21:23;;;;;;;60.30;19.23;;;8.30;99.90;;;;;;5038895;28;20049;-46
2022/12/21 02:24:23;;;;;;;51.95;19.05;;;8.30;99.90;;;;;;5055212;28;20574;-51
2022/12/21 02:27:31;;;;;;;159.20;20.95;;;8.30;99.90;;;;;;5053341;28;20076;-50
2022/12/21 02:30:12;;;;;;;129.75;19.67;;;8.30;99.90;;;;;;5048529;28;20092;-49
2022/12/21 02:33:11;;;;;;;142.50;20.48;;;8.20;99.90;;;;;;5055164;28;20053;-47
2022/12/21 02:35:43;;;;;;;109.03;19.05;;;8.20;99.90;;;;;;5052026;28;20085;-47
2022/12/21 02:38:18;;;;;;;84.93;19.15;;;8.20;99.90;;;;;;5054549;28;20088;-48
2022/12/21 02:40:49;;;;;;;102.90;19.73;;;8.20;99.90;;;;;;5041286;28;20049;-47
2022/12/21 02:46:05;;;;;;;120.53;20.17;;;8.20;99.90;;;;;;5054328;28;20053;-51
2022/12/21 02:48:35;;;;;;;73.88;19.27;;;8.20;99.90;;;;;;5052202;28;20161;-45
2022/12/21 02:51:03;;;;;;;193.32;23.23;;;8.30;99.90;;;;;;5052519;28;20049;-50
2022/12/21 02:53:33;;;;;;;157.85;22.05;;;8.20;99.90;;;;;;5054538;28;20076;-50
2022/12/21 02:55:59;;;;;;;84.85;20.30;;;8.10;99.90;;;;;;5045396;28;20115;-48
2022/12/21 02:58:26;;;;;;;192.40;23.50;;;8.10;99.90;;;;;;5054295;28;20099;-48
2022/12/21 03:01:04;;;;;;;70.90;19.50;;;8.10;99.90;;;;;;5053564;28;20382;-50
2022/12/21 03:03:49;;;;;;;67.80;21.42;;;8.10;99.90;;;;;;5053729;28;20073;-46
2022/12/21 03:06:34;;;;;;;119.30;22.25;;;8.10;99.90;;;;;;5055346;28;20064;-48
2022/12/21 03:09:07;;;;;;;155.20;22.60;;;8.10;99.90;;;;;;5052414;28;20085;-52
2022/12/21 03:11:37;;;;;;;196.45;22.38;;;8.10;99.90;;;;;;5054122;28;20049;-48
2022/12/21 03:14:06;;;;;;;240.73;24.98;;;8.10;99.90;;;;;;5055031;28;20088;-48
2022/12/21 03:16:36;;;;;;;121.53;20.98;;;8.10;99.90;;;;;;5054204;28;20060;-47
2022/12/21 03:19:07;;;;;;;211.20;23.27;;;8.00;99.90;;;;;;5055150;28;20059;-49
2022/12/21 03:21:35;;;;;;;54.72;19.42;;;8.00;99.90;;;;;;5055064;28;20091;-50
2022/12/21 03:24:05;;;;;;;108.57;23.05;;;8.00;99.90;;;;;;5054956;28;20110;-47
2022/12/21 03:26:33;;;;;;;183.55;25.05;;;8.00;99.90;;;;;;5053822;28;20151;-47
2022/12/21 03:29:00;;;;;;;211.32;23.85;;;8.00;99.90;;;;;;5053628;28;20523;-47
2022/12/21 03:31:29;;;;;;;109.28;22.42;;;8.00;99.90;;;;;;5051082;28;20052;-50
2022/12/21 03:33:58;;;;;;;138.25;24.38;;;8.00;99.90;;;;;;5053907;28;20088;-48
2022/12/21 03:36:28;;;;;;;148.25;23.45;;;7.90;99.90;;;;;;5053677;28;20439;-48
2022/12/21 03:38:57;;;;;;;59.40;19.60;;;7.90;99.90;;;;;;5054445;28;20045;-51
2022/12/21 03:41:29;;;;;;;70.95;19.80;;;8.00;99.90;;;;;;5054814;28;20096;-46
2022/12/21 03:43:56;;;;;;;100.75;20.88;;;7.90;99.90;;;;;;5053479;28;20056;-47
2022/12/21 03:46:24;;;;;;;132.40;21.67;;;7.90;99.90;;;;;;5051717;28;20052;-48
2022/12/21 03:48:53;;;;;;;58.40;19.20;;;7.90;99.90;;;;;;5054469;28;20107;-51
2022/12/21 03:51:22;;;;;;;79.65;20.73;;;7.90;99.90;;;;;;5053435;28;20055;-50
2022/12/21 03:53:51;;;;;;;215.85;23.73;;;7.90;99.90;;;;;;5050243;28;20088;-47
2022/12/21 03:56:20;;;;;;;131.73;21.52;;;7.90;99.90;;;;;;5052324;28;20083;-43
2022/12/21 03:58:47;;;;;;;147.80;22.00;;;7.90;99.90;;;;;;5052482;28;20076;-49
2022/12/21 04:01:18;;;;;;;120.13;20.70;;;7.90;99.90;;;;;;5051905;28;20148;-49
2022/12/21 04:03:47;;;;;;;214.57;24.25;;;7.90;99.90;;;;;;5052225;28;20107;-48
2022/12/21 04:06:15;;;;;;;189.13;23.27;;;7.80;99.90;;;;;;5052955;28;20107;-49
2022/12/21 04:08:42;;;;;;;197.25;24.25;;;7.80;99.90;;;;;;5050831;28;20126;-48
2022/12/21 04:12:36;;;;;;;201.13;23.17;;;7.80;99.90;;;;;;5052227;28;20049;-50
2022/12/21 04:13:57;;;;;;;89.80;22.02;;;7.80;99.90;;;;;;5053389;28;20060;-49
2022/12/21 04:16:24;;;;;;;64.05;19.98;;;7.80;99.90;;;;;;5053974;28;20045;-49
2022/12/21 04:21:35;;;;;;;133.88;22.65;;;7.80;99.90;;;;;;5051357;28;20489;-51
2022/12/21 04:29:31;;;;;;;144.20;24.52;;;7.80;99.90;;;;;;5052967;28;20428;-49
2022/12/21 04:31:58;;;;;;;160.57;24.20;;;7.70;99.90;;;;;;5052026;28;20077;-48
2022/12/21 04:34:25;;;;;;;162.90;26.25;;;7.70;99.90;;;;;;5052009;28;20084;-50
2022/12/21 04:39:36;;;;;;;87.97;21.92;;;7.70;99.90;;;;;;5053616;28;20048;-50
2022/12/21 04:42:04;;;;;;;123.85;23.95;;;7.60;99.90;;;;;;5052310;28;20073;-49
2022/12/21 04:44:31;;;;;;;120.20;24.08;;;7.60;99.90;;;;;;5052805;28;20124;-50
2022/12/21 04:46:58;;;;;;;107.90;24.40;;;7.60;99.90;;;;;;5053838;28;20147;-48
2022/12/21 04:49:24;;;;;;;76.05;23.38;;;7.50;99.90;;;;;;5050470;28;20515;-50
2022/12/21 04:51:51;;;;;;;185.55;25.20;;;7.60;99.90;;;;;;5052098;28;20076;-48
2022/12/21 04:54:18;;;;;;;65.43;21.23;;;7.60;99.90;;;;;;5052065;28;20543;-49
2022/12/21 04:56:45;;;;;;;79.15;22.63;;;7.60;99.90;;;;;;5052111;28;20481;-51
2022/12/21 04:59:13;;;;;;;159.70;25.58;;;7.60;99.90;;;;;;5053326;28;20057;-47
2022/12/21 05:01:40;;;;;;;124.75;24.45;;;7.60;99.90;;;;;;5052721;28;20087;-48
2022/12/21 05:04:07;;;;;;;216.43;26.85;;;7.60;99.90;;;;;;5053084;28;20536;-50
2022/12/21 05:06:34;;;;;;;141.48;27.10;;;7.60;99.90;;;;;;5052749;28;20053;-49
2022/12/21 05:09:01;;;;;;;90.30;24.23;;;7.60;99.90;;;;;;5050846;28;20128;-47
2022/12/21 05:11:27;;;;;;;161.35;26.63;;;7.50;99.90;;;;;;5050631;28;20094;-50
2022/12/21 05:13:54;;;;;;;91.18;24.35;;;7.60;99.90;;;;;;5051262;28;20106;-49
2022/12/21 05:16:24;;;;;;;185.68;28.27;;;7.60;99.90;;;;;;5050744;28;20092;-50
2022/12/21 05:18:52;;;;;;;200.75;29.23;;;7.60;99.90;;;;;;5051599;28;20541;-45
2022/12/21 05:21:19;;;;;;;168.55;29.17;;;7.60;99.90;;;;;;5046076;28;20124;-45
2022/12/21 05:23:46;;;;;;;139.02;25.40;;;7.60;99.90;;;;;;5043484;28;20519;-48
2022/12/21 05:26:13;;;;;;;198.93;28.15;;;7.60;99.90;;;;;;5047874;28;20463;-46
2022/12/21 05:28:39;;;;;;;207.48;28.40;;;7.60;99.90;;;;;;5050602;28;20049;-50
2022/12/21 05:31:06;;;;;;;215.05;28.33;;;7.60;99.90;;;;;;5049686;28;20087;-49
2022/12/21 05:33:35;;;;;;;126.50;25.88;;;7.50;99.90;;;;;;5049439;28;20079;-46
2022/12/21 05:36:02;;;;;;;161.55;27.92;;;7.50;99.90;;;;;;5049203;28;20077;-51
2022/12/21 05:38:29;;;;;;;246.77;29.67;;;7.50;99.90;;;;;;5047764;28;20049;-46
2022/12/21 05:40:56;;;;;;;144.50;26.80;;;7.60;99.90;;;;;;5051206;28;20072;-47
2022/12/21 05:43:23;;;;;;;247.23;30.17;;;7.50;99.90;;;;;;5052339;28;20088;-50
2022/12/21 05:45:49;;;;;;;127.63;27.95;;;7.50;99.90;;;;;;5050934;28;20088;-48
2022/12/21 05:48:17;;;;;;;219.75;30.02;;;7.50;99.90;;;;;;5051146;28;20076;-51
2022/12/21 05:50:45;;;;;;;136.63;26.70;;;7.50;99.90;;;;;;5050229;28;20128;-51
2022/12/21 05:53:12;;;;;;;96.57;24.90;;;7.50;99.90;;;;;;5051750;28;20049;-48
2022/12/21 05:55:38;;;;;;;274.23;30.58;;;7.50;99.90;;;;;;5049965;28;20131;-48
2022/12/21 05:58:05;;;;;;;268.63;33.28;;;7.50;99.90;;;;;;5052121;28;20053;-49
2022/12/21 06:00:32;;;;;;;199.90;30.33;;;7.60;99.90;;;;;;5049466;28;20049;-49
2022/12/21 06:02:59;;;;;;;150.15;29.67;;;7.50;99.90;;;;;;5047995;28;20128;-50
2022/12/21 06:05:27;;;;;;;135.35;29.20;;;7.50;99.90;;;;;;5047033;28;20564;-52
2022/12/21 06:07:55;;;;;;;257.30;33.15;;;7.60;99.90;;;;;;5048690;28;20510;-48
2022/12/21 06:10:22;;;;;;;155.98;30.60;;;7.60;99.90;;;;;;5051032;28;20092;-50
2022/12/21 06:12:48;;;;;;;294.88;35.95;;;7.60;99.90;;;;;;5049026;28;20490;-47
2022/12/21 06:15:15;;;;;;;297.00;35.53;;;7.60;99.90;;;;;;5049971;28;20124;-50
2022/12/21 06:17:42;;;;;;;212.20;35.03;;;7.60;99.90;;;;;;5045451;28;20085;-49
2022/12/21 06:20:09;;;;;;;294.73;38.33;;;7.60;99.90;;;;;;5049203;28;20106;-44
2022/12/21 06:22:36;;;;;;;163.70;33.35;;;7.60;99.90;;;;;;5047835;28;20076;-49
2022/12/21 06:25:05;;;;;;;126.90;31.90;;;7.60;99.90;;;;;;5045144;28;20136;-47
2022/12/21 06:27:32;;;;;;;139.30;33.30;;;7.60;99.90;;;;;;5047954;28;20536;-49
2022/12/21 06:29:59;;;;;;;201.90;34.17;;;7.60;99.90;;;;;;5051187;28;20081;-47
2022/12/21 06:32:25;;;;;;;216.05;35.95;;;7.60;99.90;;;;;;5051518;28;20049;-51
2022/12/21 06:34:52;;;;;;;188.73;34.35;;;7.60;99.90;;;;;;5049965;28;20041;-49
2022/12/21 06:37:19;;;;;;;176.52;35.30;;;7.60;99.90;;;;;;5048400;28;20115;-48
2022/12/21 06:39:46;;;;;;;157.93;31.67;;;7.60;99.90;;;;;;5050882;28;20053;-49
2022/12/21 06:42:14;;;;;;;171.00;32.10;;;7.60;99.90;;;;;;5046992;28;20512;-49
2022/12/21 06:44:41;;;;;;;153.35;31.38;;;7.60;99.90;;;;;;5049197;28;20099;-49
2022/12/21 06:47:08;;;;;;;142.10;32.20;;;7.70;99.90;;;;;;5050138;28;20593;-49
2022/12/21 06:49:34;;;;;;;105.25;29.70;;;7.60;99.90;;;;;;5050571;28;20053;-50
2022/12/21 06:52:01;;;;;;;125.60;31.42;;;7.60;99.90;;;;;;5052988;28;20087;-50
2022/12/21 06:54:28;;;;;;;150.25;32.03;;;7.60;99.90;;;;;;5049532;28;20061;-52
2022/12/21 06:56:55;;;;;;;159.70;32.55;;;7.60;99.90;;;;;;5052823;28;20110;-51
2022/12/21 06:59:23;;;;;;;112.88;30.95;;;7.70;99.90;;;;;;5052860;28;20405;-50
2022/12/21 07:01:50;;;;;;;138.45;34.55;;;7.60;99.90;;;;;;5054082;28;20076;-50
2022/12/21 07:04:17;;;;;;;127.40;32.55;;;7.60;99.90;;;;;;5050407;28;20088;-48
2022/12/21 07:06:44;;;;;;;136.48;33.60;;;7.60;99.90;;;;;;5052849;28;20507;-51
2022/12/21 07:09:11;;;;;;;137.23;33.10;;;7.60;99.90;;;;;;5051258;28;20049;-47
2022/12/21 07:11:38;;;;;;;116.43;31.55;;;7.60;99.90;;;;;;5051080;28;20052;-50
2022/12/21 07:14:05;;;;;;;143.75;33.45;;;7.60;99.90;;;;;;5053303;28;20566;-51
2022/12/21 07:16:33;;;;;;;123.80;36.20;;;7.60;99.90;;;;;;5052312;28;20045;-50
2022/12/21 07:19:00;;;;;;;124.20;35.90;;;7.60;99.90;;;;;;5051179;28;20084;-50
2022/12/21 07:21:27;;;;;;;138.30;34.63;;;7.60;99.90;;;;;;5051757;28;20476;-44
2022/12/21 07:23:54;;;;;;;131.27;35.30;;;7.60;99.90;;;;;;5054587;28;20049;-48
2022/12/21 07:26:21;;;;;;;150.35;34.58;;;7.60;99.90;;;;;;5053728;28;20049;-51
2022/12/21 07:28:48;;;;;;;159.48;37.35;;;7.60;99.90;;;;;;5052712;28;20558;-50
2022/12/21 07:31:17;;;;;;;172.32;36.55;;;7.60;99.90;;;;;;5051696;28;20049;-49
2022/12/21 07:33:45;;;;;;;169.23;38.03;;;7.60;99.90;;;;;;5051667;28;20474;-52
2022/12/21 07:36:12;;;;;;;118.45;33.65;;;7.60;99.90;;;;;;5053429;28;20057;-48
2022/12/21 07:38:39;;;;;;;128.43;33.80;;;7.60;99.90;;;;;;5050481;28;20053;-50
2022/12/21 07:41:07;;;;;;;147.00;36.05;;;7.60;99.90;;;;;;5052608;28;20080;-51
2022/12/21 07:43:34;;;;;;;141.30;37.03;;;7.60;99.90;;;;;;5053336;28;20132;-52
2022/12/21 07:46:02;;;;;;;115.90;33.20;;;7.60;99.90;;;;;;5052805;28;20084;-51
2022/12/21 07:48:28;;;;;;;179.93;39.30;;;7.50;99.90;;;;;;5053132;28;20052;-49
2022/12/21 07:50:56;;;;;;;166.18;36.90;;;7.60;99.90;;;;;;5051991;28;20040;-51
2022/12/21 07:53:23;;;;;;;180.05;37.42;;;7.50;99.90;;;;;;5049020;28;20102;-47
2022/12/21 07:55:50;;;;;;;171.10;36.75;;;7.60;99.90;;;;;;5051552;28;20045;-49
2022/12/21 07:58:17;;;;;;;198.43;40.55;;;7.50;99.90;;;;;;5052076;28;20099;-48
2022/12/21 08:00:45;;;;;;;153.90;39.40;;;7.60;99.90;;;;;;5050521;28;20488;-48
2022/12/21 08:03:12;;;;;;;215.13;42.08;;;7.60;99.90;;;;;;5050984;28;20052;-48
2022/12/21 08:05:39;;;;;;;200.07;41.95;;;7.60;99.90;;;;;;5050683;28;20045;-49
2022/12/21 08:08:07;;;;;;;131.45;37.70;;;7.60;99.90;;;;;;5049816;28;20064;-52
2022/12/21 08:10:34;;;;;;;190.82;41.45;;;7.50;99.90;;;;;;5049898;28;20081;-50
2022/12/21 08:13:01;;;;;;;178.10;42.75;;;7.60;99.90;;;;;;5051934;28;20095;-48
2022/12/21 08:15:28;;;;;;;150.75;42.42;;;7.60;99.90;;;;;;5052641;28;20547;-44
2022/12/21 08:17:54;;;;;;;157.00;40.70;;;7.60;99.90;;;;;;5053162;28;20057;-47
2022/12/21 08:20:21;;;;;;;179.80;42.63;;;7.60;99.90;;;;;;5048954;28;20132;-50
2022/12/21 08:22:49;;;;;;;186.60;41.58;;;7.60;99.90;;;;;;5051305;28;20094;-42
2022/12/21 08:25:17;;;;;;;123.32;36.67;;;7.60;99.90;;;;;;5050092;28;20049;-51
2022/12/21 08:27:44;;;;;;;167.45;40.75;;;7.60;99.90;;;;;;5046086;28;20050;-49
2022/12/21 08:30:11;;;;;;;166.27;40.20;;;7.60;99.90;;;;;;5040007;28;20466;-50
2022/12/21 08:32:38;;;;;;;138.73;39.30;;;7.60;99.90;;;;;;5051377;28;20089;-49
2022/12/21 08:35:05;;;;;;;116.82;37.15;;;7.60;99.90;;;;;;5050610;28;20126;-51
2022/12/21 08:37:32;;;;;;;136.98;39.15;;;7.60;99.90;;;;;;5049220;28;20056;-50
2022/12/21 08:39:59;;;;;;;144.50;41.10;;;7.60;99.90;;;;;;5051060;28;20458;-49
2022/12/21 08:42:27;;;;;;;140.75;38.70;;;7.60;99.90;;;;;;5051100;28;20140;-48
2022/12/21 08:44:54;;;;;;;167.40;41.92;;;7.60;99.90;;;;;;5050355;28;20080;-49
2022/12/21 08:47:21;;;;;;;160.13;42.35;;;7.70;99.90;;;;;;5050805;28;20049;-50
2022/12/21 08:49:47;;;;;;;176.00;44.63;;;7.60;99.90;;;;;;5049886;28;20087;-50
2022/12/21 08:52:14;;;;;;;187.23;42.85;;;7.60;99.90;;;;;;5051240;28;20103;-51
2022/12/21 08:54:41;;;;;;;175.20;43.67;;;7.60;99.90;;;;;;5051032;28;20045;-47
2022/12/21 08:57:08;;;;;;;168.38;42.28;;;7.70;99.90;;;;;;5049187;28;20461;-50
2022/12/21 08:59:36;;;;;;;170.38;43.50;;;7.70;99.90;;;;;;5033053;28;20100;-45
2022/12/21 09:02:03;;;;;;;144.10;40.60;;;7.70;99.90;;;;;;5046234;28;20049;-49
2022/12/21 09:04:30;;;;;;;173.85;41.83;;;7.70;99.90;;;;;;5048301;28;20041;-49
2022/12/21 09:06:56;;;;;;;147.90;40.38;;;7.70;99.90;;;;;;5051774;28;20475;-48
2022/12/21 09:09:23;;;;;;;164.15;40.75;;;7.70;99.90;;;;;;5050834;28;20056;-50
2022/12/21 09:11:50;;;;;;;133.50;38.78;;;7.70;99.90;;;;;;5050390;28;20503;-48
2022/12/21 09:14:17;;;;;;;158.65;40.03;;;7.70;99.90;;;;;;5049091;28;20437;-47
2022/12/21 09:16:45;;;;;;;145.77;40.17;;;7.80;99.90;;;;;;5048300;28;20045;-48
2022/12/21 09:19:12;;;;;;;123.35;36.88;;;7.80;99.90;;;;;;5050373;28;20057;-48
2022/12/21 09:21:39;;;;;;;155.82;38.25;;;7.80;99.90;;;;;;5050829;28;20088;-50
2022/12/21 09:24:07;;;;;;;145.85;38.38;;;7.80;99.90;;;;;;5048883;28;20497;-47
2022/12/21 09:26:34;;;;;;;129.82;37.33;;;7.80;99.90;;;;;;5049796;28;20049;-50
2022/12/21 09:29:00;;;;;;;133.95;35.53;;;7.80;99.90;;;;;;5050135;28;20489;-46
2022/12/21 09:31:27;;;;;;;120.15;34.75;;;7.80;99.90;;;;;;5047546;28;20138;-46
2022/12/21 09:33:56;;;;;;;129.02;37.25;;;7.80;99.90;;;;;;5050789;28;20053;-47
2022/12/21 09:36:23;;;;;;;141.35;36.08;;;7.80;99.90;;;;;;5051752;28;20106;-46
2022/12/21 09:38:50;;;;;;;145.07;36.42;;;7.80;99.90;;;;;;5050639;28;20080;-50
2022/12/21 09:41:42;;;;;;;117.88;36.55;;;7.80;99.90;;;;;;5048053;28;20045;-47
2022/12/21 09:44:23;;;;;;;133.95;37.90;;;7.80;99.90;;;;;;5049088;28;20142;-45
2022/12/21 09:46:51;;;;;;;118.72;36.75;;;7.80;99.90;;;;;;5047368;28;20128;-47
2022/12/21 09:49:20;;;;;;;120.47;36.42;;;7.80;99.90;;;;;;5047469;28;20049;-47
2022/12/21 09:51:50;;;;;;;113.97;37.17;;;7.80;99.90;;;;;;5049970;28;20076;-50
2022/12/21 09:54:19;;;;;;;118.03;37.08;;;7.70;99.90;;;;;;5048398;28;20148;-50
2022/12/21 09:56:47;;;;;;;130.32;35.00;;;7.80;99.90;;;;;;5048194;28;20048;-49
2022/12/21 09:59:14;;;;;;;132.63;35.83;;;7.80;99.90;;;;;;5049443;28;20123;-48
2022/12/21 10:01:44;;;;;;;129.63;36.53;;;7.80;99.90;;;;;;5036759;28;20085;-43
2022/12/21 10:04:34;;;;;;;126.75;36.13;;;7.80;99.90;;;;;;5048191;28;20049;-44
2022/12/21 10:07:10;;;;;;;129.80;38.40;;;7.80;99.90;;;;;;5048712;28;20084;-49
2022/12/21 10:09:47;;;;;;;130.35;35.00;;;7.80;99.90;;;;;;5049013;28;20126;-50
2022/12/21 10:12:19;;;;;;;125.80;36.40;;;7.80;99.90;;;;;;5049442;28;20040;-51
2022/12/21 10:14:55;;;;;;;115.40;34.70;;;7.80;99.90;;;;;;5048730;28;20131;-49
2022/12/21 10:17:32;;;;;;;108.85;34.25;;;7.90;99.90;;;;;;5050159;28;20056;-50
2022/12/21 10:20:03;;;;;;;111.57;34.72;;;7.80;99.90;;;;;;5047682;28;20094;-44
2022/12/21 10:22:32;;;;;;;105.57;32.95;;;7.90;99.90;;;;;;5047070;28;20457;-49
2022/12/21 10:24:59;;;;;;;99.88;32.88;;;7.90;99.90;;;;;;5051000;28;20049;-46
2022/12/21 10:27:28;;;;;;;95.00;33.00;;;7.90;99.90;;;;;;5054021;28;20040;-46
2022/12/21 10:29:57;;;;;;;97.55;32.20;;;8.00;99.90;;;;;;5052787;28;20437;-45
2022/12/21 10:32:23;;;;;;;98.60;32.70;;;8.00;99.90;;;;;;5052651;28;20127;-52
2022/12/21 10:34:51;;;;;;;95.45;32.03;;;8.10;99.90;;;;;;5051725;28;20574;-46
2022/12/21 10:37:20;;;;;;;89.40;30.50;;;8.10;99.90;;;;;;5051009;28;20570;-50
2022/12/21 10:39:47;;;;;;;88.00;30.05;;;8.20;99.90;;;;;;5055720;28;20371;-50
2022/12/21 10:42:18;;;;;;;86.28;29.20;;;8.30;99.90;;;;;;5054699;28;20544;-51
2022/12/21 10:44:45;;;;;;;85.38;29.00;;;8.30;99.90;;;;;;5053055;28;20508;-51
2022/12/21 10:47:13;;;;;;;83.90;29.00;;;8.30;99.90;;;;;;5051197;28;20048;-48
2022/12/21 10:49:40;;;;;;;90.10;29.30;;;8.40;99.90;;;;;;5052798;28;20106;-50
2022/12/21 10:52:32;;;;;;;75.13;27.73;;;8.40;99.90;;;;;;5050700;28;20139;-46
2022/12/21 10:54:59;;;;;;;90.93;28.55;;;8.50;99.90;;;;;;5051717;28;20474;-43
2022/12/21 10:57:27;;;;;;;84.85;29.50;;;8.50;99.90;;;;;;5051144;28;20080;-48
2022/12/21 10:59:53;;;;;;;79.38;29.52;;;8.50;99.90;;;;;;5054122;28;20048;-50
2022/12/21 11:02:33;;;;;;;85.53;28.65;;;8.50;99.90;;;;;;5054188;28;20095;-47
2022/12/21 11:04:59;;;;;;;91.20;30.25;;;8.50;99.90;;;;;;5054154;28;20092;-48
2022/12/21 11:07:29;;;;;;;79.57;30.30;;;8.60;99.90;;;;;;5054767;28;20053;-48
2022/12/21 11:09:57;;;;;;;75.93;28.13;;;8.60;99.90;;;;;;5051975;28;20053;-48
2022/12/21 11:12:24;;;;;;;82.50;29.98;;;8.60;99.90;;;;;;5053594;28;20059;-46
2022/12/21 11:14:52;;;;;;;78.60;28.92;;;8.70;99.90;;;;;;5053907;28;20115;-49
2022/12/21 11:17:21;;;;;;;72.82;28.30;;;8.70;99.90;;;;;;5054949;28;20124;-46
2022/12/21 11:19:48;;;;;;;74.97;28.10;;;8.80;99.90;;;;;;5054653;28;20098;-44
2022/12/21 11:22:15;;;;;;;73.50;26.92;;;8.80;99.90;;;;;;5053754;28;20191;-47
2022/12/21 11:24:44;;;;;;;71.53;26.67;;;8.90;99.90;;;;;;5053432;28;20049;-49
2022/12/21 11:27:20;;;;;;;76.05;26.85;;;8.90;99.90;;;;;;5044490;28;20049;-48
2022/12/21 11:29:47;;;;;;;73.35;27.98;;;8.90;99.90;;;;;;5051677;28;20128;-49
2022/12/21 11:32:14;;;;;;;78.07;27.70;;;8.90;99.90;;;;;;5053645;28;20072;-49
2022/12/21 11:34:42;;;;;;;79.32;29.52;;;8.90;99.90;;;;;;5046545;28;20099;-49
2022/12/21 11:37:23;;;;;;;75.00;26.85;;;8.90;99.90;;;;;;5052030;28;20088;-50
2022/12/21 11:39:51;;;;;;;74.05;28.85;;;9.00;99.90;;;;;;5049767;28;20080;-49
2022/12/21 11:42:19;;;;;;;68.80;26.20;;;9.00;99.90;;;;;;5053324;28;20049;-48
2022/12/21 11:44:46;;;;;;;72.72;27.15;;;9.10;99.90;;;;;;5049520;28;20195;-48
2022/12/21 11:47:29;;;;;;;69.18;27.38;;;9.10;99.90;;;;;;5051455;28;20102;-49
2022/12/21 11:50:28;;;;;;;73.38;26.73;;;9.10;99.90;;;;;;5050453;28;20477;-48
2022/12/21 11:53:08;;;;;;;77.32;27.17;;;9.20;99.90;;;;;;5052926;28;20501;-49
2022/12/21 11:55:41;;;;;;;73.68;28.38;;;9.20;99.90;;;;;;5053264;28;20099;-47
2022/12/21 11:58:13;;;;;;;69.93;28.67;;;9.20;99.90;;;;;;5052942;28;20080;-46
2022/12/21 12:00:43;;;;;;;68.10;27.83;;;9.30;99.90;;;;;;5048935;28;20056;-49
2022/12/21 12:03:27;;;;;;;70.45;26.92;;;9.20;99.90;;;;;;5048798;28;20447;-47
2022/12/21 12:06:11;;;;;;;64.40;26.63;;;9.30;99.90;;;;;;5048869;28;20052;-48
2022/12/21 12:08:49;;;;;;;70.13;31.08;;;9.30;99.90;;;;;;5048226;28;20139;-43
2022/12/21 12:11:23;;;;;;;73.60;28.85;;;9.20;99.90;;;;;;5045940;28;20045;-45
2022/12/21 12:14:01;;;;;;;70.45;25.45;;;9.30;99.90;;;;;;5049372;28;20072;-47
2022/12/21 12:16:30;;;;;;;67.55;26.08;;;9.30;99.90;;;;;;5044717;28;20079;-47
2022/12/21 12:18:59;;;;;;;60.78;24.25;;;9.40;99.90;;;;;;5050412;28;20080;-49
2022/12/21 12:21:30;;;;;;;77.03;25.58;;;9.40;99.90;;;;;;5040544;28;20053;-48
2022/12/21 12:24:12;;;;;;;68.35;25.77;;;9.40;99.90;;;;;;5033090;28;20132;-49
2022/12/21 12:26:43;;;;;;;67.80;24.45;;;9.40;99.90;;;;;;5032869;28;20466;-50
2022/12/21 12:29:29;;;;;;;58.20;24.67;;;9.40;99.90;;;;;;5040577;28;20469;-50
2022/12/21 12:32:08;;;;;;;68.15;23.60;;;9.40;99.90;;;;;;5050742;28;20053;-51
2022/12/21 12:34:55;;;;;;;63.08;23.35;;;9.30;99.90;;;;;;5052433;28;20060;-51
2022/12/21 12:37:26;;;;;;;60.30;23.60;;;9.20;99.90;;;;;;5049219;28;20574;-44
2022/12/21 12:39:57;;;;;;;55.38;24.25;;;9.20;99.90;;;;;;5049827;28;20129;-47
2022/12/21 12:42:27;;;;;;;54.92;22.83;;;9.20;99.90;;;;;;5047730;28;20158;-46
2022/12/21 12:45:00;;;;;;;58.58;23.00;;;9.20;99.90;;;;;;5042435;28;20501;-47
2022/12/21 12:47:32;;;;;;;60.17;23.92;;;9.10;99.90;;;;;;5048507;28;20084;-50
2022/12/21 12:50:06;;;;;;;66.10;25.80;;;9.10;99.90;;;;;;5038928;28;20169;-51
2022/12/21 12:52:41;;;;;;;76.68;26.58;;;9.00;99.90;;;;;;5052163;28;20063;-52
2022/12/21 12:55:12;;;;;;;54.65;24.52;;;9.00;99.90;;;;;;5051252;28;20091;-48